sensor_id;sensor_type;location;lat;lon;timestamp;temperature;humidity
21551;DHT22;10936;49.836;7.078;2022-07-29T05:01:23;25.70;91.20
21551;DHT22;10936;49.836;7.078;2022-07-29T05:03:49;25.70;91.20
21551;DHT22;10936;49.836;7.078;2022-07-29T05:06:14;25.70;91.20
21551;DHT22;10936;49.836;7.078;2022-07-29T05:08:40;25.70;91.20
21551;DHT22;10936;49.836;7.078;2022-07-29T05:11:05;25.60;91.20
21551;DHT22;10936;49.836;7.078;2022-07-29T05:13:31;25.60;91.20
21551;DHT22;10936;49.836;7.078;2022-07-29T05:15:57;25.60;91.20
21551;DHT22;10936;49.836;7.078;2022-07-29T05:18:25;25.70;91.20
21551;DHT22;10936;49.836;7.078;2022-07-29T05:20:51;25.60;91.20
21551;DHT22;10936;49.836;7.078;2022-07-29T05:23:17;25.60;91.20
21551;DHT22;10936;49.836;7.078;2022-07-29T05:25:42;25.60;91.20
21551;DHT22;10936;49.836;7.078;2022-07-29T05:28:08;25.60;91.20
21551;DHT22;10936;49.836;7.078;2022-07-29T05:30:34;25.70;91.30
21551;DHT22;10936;49.836;7.078;2022-07-29T05:33:00;25.60;91.20
21551;DHT22;10936;49.836;7.078;2022-07-29T05:35:25;25.60;91.30
21551;DHT22;10936;49.836;7.078;2022-07-29T05:37:51;25.60;91.30
21551;DHT22;10936;49.836;7.078;2022-07-29T05:40:16;25.60;91.30
21551;DHT22;10936;49.836;7.078;2022-07-29T05:42:42;25.60;91.30
21551;DHT22;10936;49.836;7.078;2022-07-29T05:45:08;25.60;91.30
21551;DHT22;10936;49.836;7.078;2022-07-29T05:47:34;25.60;91.30
21551;DHT22;10936;49.836;7.078;2022-07-29T05:50:00;25.60;91.30
21551;DHT22;10936;49.836;7.078;2022-07-29T05:52:26;25.60;91.40
21551;DHT22;10936;49.836;7.078;2022-07-29T05:54:51;25.60;91.30
21551;DHT22;10936;49.836;7.078;2022-07-29T05:57:19;25.70;91.40
21551;DHT22;10936;49.836;7.078;2022-07-29T05:59:45;25.70;91.40
21551;DHT22;10936;49.836;7.078;2022-07-29T06:02:11;25.60;91.40
21551;DHT22;10936;49.836;7.078;2022-07-29T06:04:37;25.70;91.40
21551;DHT22;10936;49.836;7.078;2022-07-29T06:07:03;25.70;91.40
21551;DHT22;10936;49.836;7.078;2022-07-29T06:09:29;25.70;91.40
21551;DHT22;10936;49.836;7.078;2022-07-29T06:11:55;25.70;91.30
21551;DHT22;10936;49.836;7.078;2022-07-29T06:14:20;25.70;91.30
21551;DHT22;10936;49.836;7.078;2022-07-29T06:16:46;25.70;91.30
21551;DHT22;10936;49.836;7.078;2022-07-29T06:19:12;25.80;91.30
21551;DHT22;10936;49.836;7.078;2022-07-29T06:21:42;25.80;91.30
21551;DHT22;10936;49.836;7.078;2022-07-29T06:24:10;25.80;91.30
21551;DHT22;10936;49.836;7.078;2022-07-29T06:26:35;25.90;91.30
21551;DHT22;10936;49.836;7.078;2022-07-29T06:29:01;25.80;91.20
21551;DHT22;10936;49.836;7.078;2022-07-29T06:31:27;25.80;91.20
21551;DHT22;10936;49.836;7.078;2022-07-29T06:33:52;25.90;91.20
21551;DHT22;10936;49.836;7.078;2022-07-29T06:36:18;25.90;91.20
21551;DHT22;10936;49.836;7.078;2022-07-29T06:38:44;25.90;91.20
21551;DHT22;10936;49.836;7.078;2022-07-29T06:41:09;26.00;91.30
21551;DHT22;10936;49.836;7.078;2022-07-29T06:43:42;26.00;91.30
21551;DHT22;10936;49.836;7.078;2022-07-29T06:46:18;26.00;91.20
21551;DHT22;10936;49.836;7.078;2022-07-29T06:48:44;26.00;91.20
21551;DHT22;10936;49.836;7.078;2022-07-29T06:51:10;26.00;91.20
21551;DHT22;10936;49.836;7.078;2022-07-29T06:53:37;26.00;91.20
21551;DHT22;10936;49.836;7.078;2022-07-29T06:56:04;26.00;91.20
21551;DHT22;10936;49.836;7.078;2022-07-29T06:58:31;26.00;91.10
21551;DHT22;10936;49.836;7.078;2022-07-29T07:00:58;26.10;91.10
21551;DHT22;10936;49.836;7.078;2022-07-29T07:03:24;26.10;91.20
21551;DHT22;10936;49.836;7.078;2022-07-29T07:05:52;26.10;91.10
21551;DHT22;10936;49.836;7.078;2022-07-29T07:08:18;26.10;91.00
21551;DHT22;10936;49.836;7.078;2022-07-29T07:10:45;26.10;91.00
21551;DHT22;10936;49.836;7.078;2022-07-29T07:13:11;26.10;91.00
21551;DHT22;10936;49.836;7.078;2022-07-29T07:15:37;26.10;91.30
21551;DHT22;10936;49.836;7.078;2022-07-29T07:18:04;26.20;91.00
21551;DHT22;10936;49.836;7.078;2022-07-29T07:20:31;26.20;91.00
21551;DHT22;10936;49.836;7.078;2022-07-29T07:22:57;26.20;91.00
21551;DHT22;10936;49.836;7.078;2022-07-29T07:25:22;26.20;90.90
21551;DHT22;10936;49.836;7.078;2022-07-29T07:27:48;26.20;90.90
21551;DHT22;10936;49.836;7.078;2022-07-29T07:30:14;26.20;90.90
21551;DHT22;10936;49.836;7.078;2022-07-29T07:32:40;26.20;90.90
21551;DHT22;10936;49.836;7.078;2022-07-29T07:35:06;26.20;90.80
21551;DHT22;10936;49.836;7.078;2022-07-29T07:37:33;26.30;90.80
21551;DHT22;10936;49.836;7.078;2022-07-29T07:39:59;26.30;90.80
21551;DHT22;10936;49.836;7.078;2022-07-29T07:42:24;26.30;90.80
21551;DHT22;10936;49.836;7.078;2022-07-29T07:44:50;26.30;90.80
21551;DHT22;10936;49.836;7.078;2022-07-29T07:47:16;26.30;90.80
21551;DHT22;10936;49.836;7.078;2022-07-29T07:49:52;26.30;90.90
21551;DHT22;10936;49.836;7.078;2022-07-29T07:52:20;26.30;90.90
21551;DHT22;10936;49.836;7.078;2022-07-29T07:54:46;26.30;90.80
21551;DHT22;10936;49.836;7.078;2022-07-29T07:57:13;26.30;90.80
21551;DHT22;10936;49.836;7.078;2022-07-29T07:59:39;26.30;90.80
21551;DHT22;10936;49.836;7.078;2022-07-29T08:02:06;26.30;90.80
21551;DHT22;10936;49.836;7.078;2022-07-29T08:04:32;26.30;90.80
21551;DHT22;10936;49.836;7.078;2022-07-29T08:06:58;26.30;90.70
21551;DHT22;10936;49.836;7.078;2022-07-29T08:09:25;26.30;90.70
21551;DHT22;10936;49.836;7.078;2022-07-29T08:11:51;26.30;90.80
21551;DHT22;10936;49.836;7.078;2022-07-29T08:14:18;26.30;90.80
21551;DHT22;10936;49.836;7.078;2022-07-29T08:16:43;26.30;90.80
21551;DHT22;10936;49.836;7.078;2022-07-29T08:19:09;26.30;90.70
21551;DHT22;10936;49.836;7.078;2022-07-29T08:21:35;26.30;90.80
21551;DHT22;10936;49.836;7.078;2022-07-29T08:24:01;26.40;90.80
21551;DHT22;10936;49.836;7.078;2022-07-29T08:26:45;26.40;90.70
21551;DHT22;10936;49.836;7.078;2022-07-29T08:29:11;26.40;90.80
21551;DHT22;10936;49.836;7.078;2022-07-29T08:31:38;26.40;90.90
21551;DHT22;10936;49.836;7.078;2022-07-29T08:34:04;26.40;91.10
21551;DHT22;10936;49.836;7.078;2022-07-29T08:36:30;26.40;91.20
21551;DHT22;10936;49.836;7.078;2022-07-29T08:38:57;26.40;91.10
21551;DHT22;10936;49.836;7.078;2022-07-29T08:41:23;26.40;91.00
21551;DHT22;10936;49.836;7.078;2022-07-29T08:43:50;26.40;90.90
21551;DHT22;10936;49.836;7.078;2022-07-29T08:46:16;26.40;90.90
21551;DHT22;10936;49.836;7.078;2022-07-29T08:48:43;26.40;90.80
21551;DHT22;10936;49.836;7.078;2022-07-29T08:51:13;26.50;90.90
21551;DHT22;10936;49.836;7.078;2022-07-29T08:53:41;26.50;90.90
21551;DHT22;10936;49.836;7.078;2022-07-29T08:56:07;26.50;90.90
21551;DHT22;10936;49.836;7.078;2022-07-29T08:58:36;26.50;91.00
21551;DHT22;10936;49.836;7.078;2022-07-29T09:01:02;26.50;91.00
21551;DHT22;10936;49.836;7.078;2022-07-29T09:03:34;26.50;91.20
21551;DHT22;10936;49.836;7.078;2022-07-29T09:06:02;26.50;91.30
21551;DHT22;10936;49.836;7.078;2022-07-29T09:08:28;26.50;91.20
21551;DHT22;10936;49.836;7.078;2022-07-29T09:10:54;26.50;91.30
21551;DHT22;10936;49.836;7.078;2022-07-29T09:13:22;26.50;91.50
21551;DHT22;10936;49.836;7.078;2022-07-29T09:15:47;26.60;91.50
21551;DHT22;10936;49.836;7.078;2022-07-29T09:18:40;26.50;91.30
21551;DHT22;10936;49.836;7.078;2022-07-29T09:21:08;26.50;91.30
21551;DHT22;10936;49.836;7.078;2022-07-29T09:24:09;26.60;91.20
21551;DHT22;10936;49.836;7.078;2022-07-29T09:26:37;26.60;91.10
21551;DHT22;10936;49.836;7.078;2022-07-29T09:29:18;26.60;91.10
21551;DHT22;10936;49.836;7.078;2022-07-29T09:31:46;26.60;91.10
21551;DHT22;10936;49.836;7.078;2022-07-29T09:34:16;26.60;91.10
21551;DHT22;10936;49.836;7.078;2022-07-29T09:36:49;26.60;91.10
21551;DHT22;10936;49.836;7.078;2022-07-29T09:39:16;26.60;91.00
21551;DHT22;10936;49.836;7.078;2022-07-29T09:41:53;26.70;91.00
21551;DHT22;10936;49.836;7.078;2022-07-29T09:44:21;26.60;91.00
21551;DHT22;10936;49.836;7.078;2022-07-29T09:47:00;26.70;91.00
21551;DHT22;10936;49.836;7.078;2022-07-29T09:49:35;26.70;91.30
21551;DHT22;10936;49.836;7.078;2022-07-29T09:52:07;26.70;90.90
21551;DHT22;10936;49.836;7.078;2022-07-29T09:54:33;26.70;90.90
21551;DHT22;10936;49.836;7.078;2022-07-29T09:57:06;26.60;90.90
21551;DHT22;10936;49.836;7.078;2022-07-29T09:59:32;26.70;90.90
21551;DHT22;10936;49.836;7.078;2022-07-29T10:01:58;26.70;90.90
21551;DHT22;10936;49.836;7.078;2022-07-29T10:04:44;26.70;90.90
21551;DHT22;10936;49.836;7.078;2022-07-29T10:07:10;26.70;90.90
21551;DHT22;10936;49.836;7.078;2022-07-29T10:09:36;26.70;91.00
21551;DHT22;10936;49.836;7.078;2022-07-29T10:14:33;26.70;90.90
21551;DHT22;10936;49.836;7.078;2022-07-29T10:17:00;26.70;90.90
21551;DHT22;10936;49.836;7.078;2022-07-29T10:19:29;26.70;90.90
21551;DHT22;10936;49.836;7.078;2022-07-29T10:21:59;26.70;90.90
21551;DHT22;10936;49.836;7.078;2022-07-29T10:24:29;26.80;91.00
21551;DHT22;10936;49.836;7.078;2022-07-29T10:26:57;26.80;91.00
21551;DHT22;10936;49.836;7.078;2022-07-29T10:29:23;26.80;91.00
21551;DHT22;10936;49.836;7.078;2022-07-29T10:34:44;26.80;91.00
21551;DHT22;10936;49.836;7.078;2022-07-29T10:37:31;26.80;91.00
21551;DHT22;10936;49.836;7.078;2022-07-29T10:40:20;26.80;91.00
21551;DHT22;10936;49.836;7.078;2022-07-29T10:43:28;26.70;91.00
21551;DHT22;10936;49.836;7.078;2022-07-29T10:45:59;26.80;91.00
21551;DHT22;10936;49.836;7.078;2022-07-29T10:48:26;26.80;91.00
21551;DHT22;10936;49.836;7.078;2022-07-29T10:50:56;26.70;91.00
21551;DHT22;10936;49.836;7.078;2022-07-29T10:53:24;26.80;91.10
21551;DHT22;10936;49.836;7.078;2022-07-29T10:55:51;26.70;91.00
21551;DHT22;10936;49.836;7.078;2022-07-29T10:58:22;26.80;91.10
21551;DHT22;10936;49.836;7.078;2022-07-29T11:00:51;26.80;91.10
21551;DHT22;10936;49.836;7.078;2022-07-29T11:03:42;26.80;91.10
21551;DHT22;10936;49.836;7.078;2022-07-29T11:06:09;26.80;91.10
21551;DHT22;10936;49.836;7.078;2022-07-29T11:08:35;26.80;91.10
21551;DHT22;10936;49.836;7.078;2022-07-29T11:13:48;26.80;91.10
21551;DHT22;10936;49.836;7.078;2022-07-29T11:16:16;26.80;91.10
21551;DHT22;10936;49.836;7.078;2022-07-29T11:21:42;26.80;91.10
21551;DHT22;10936;49.836;7.078;2022-07-29T11:26:42;26.80;91.50
21551;DHT22;10936;49.836;7.078;2022-07-29T11:29:16;26.80;91.20
21551;DHT22;10936;49.836;7.078;2022-07-29T11:31:45;26.80;91.20
21551;DHT22;10936;49.836;7.078;2022-07-29T11:34:27;26.80;91.20
21551;DHT22;10936;49.836;7.078;2022-07-29T11:40:37;26.80;91.20
21551;DHT22;10936;49.836;7.078;2022-07-29T11:47:36;26.80;91.20
21551;DHT22;10936;49.836;7.078;2022-07-29T11:50:05;26.80;91.20
21551;DHT22;10936;49.836;7.078;2022-07-29T11:52:37;26.80;91.20
21551;DHT22;10936;49.836;7.078;2022-07-29T11:55:09;26.80;91.60
21551;DHT22;10936;49.836;7.078;2022-07-29T11:57:35;26.80;91.20
21551;DHT22;10936;49.836;7.078;2022-07-29T12:00:07;26.80;91.20
21551;DHT22;10936;49.836;7.078;2022-07-29T12:02:43;26.80;91.20
21551;DHT22;10936;49.836;7.078;2022-07-29T12:05:10;26.80;91.20
21551;DHT22;10936;49.836;7.078;2022-07-29T12:07:39;26.80;91.20
21551;DHT22;10936;49.836;7.078;2022-07-29T12:10:07;26.80;91.20
21551;DHT22;10936;49.836;7.078;2022-07-29T12:12:34;26.80;91.20
21551;DHT22;10936;49.836;7.078;2022-07-29T12:17:38;26.80;91.20
21551;DHT22;10936;49.836;7.078;2022-07-29T12:20:05;26.80;91.20
21551;DHT22;10936;49.836;7.078;2022-07-29T12:22:35;26.80;91.20
21551;DHT22;10936;49.836;7.078;2022-07-29T12:25:11;26.80;91.20
21551;DHT22;10936;49.836;7.078;2022-07-29T12:27:37;26.80;91.20
21551;DHT22;10936;49.836;7.078;2022-07-29T12:30:08;26.90;91.30
21551;DHT22;10936;49.836;7.078;2022-07-29T12:32:41;26.80;91.20
21551;DHT22;10936;49.836;7.078;2022-07-29T12:37:37;26.80;91.30
21551;DHT22;10936;49.836;7.078;2022-07-29T12:40:05;26.80;91.30
21551;DHT22;10936;49.836;7.078;2022-07-29T12:42:32;26.80;91.30
21551;DHT22;10936;49.836;7.078;2022-07-29T12:44:58;26.80;91.30
21551;DHT22;10936;49.836;7.078;2022-07-29T12:47:24;26.80;91.20
21551;DHT22;10936;49.836;7.078;2022-07-29T12:49:50;26.80;91.20
21551;DHT22;10936;49.836;7.078;2022-07-29T12:54:53;26.80;91.30
21551;DHT22;10936;49.836;7.078;2022-07-29T12:57:19;26.80;91.30
21551;DHT22;10936;49.836;7.078;2022-07-29T12:59:44;26.80;91.30
21551;DHT22;10936;49.836;7.078;2022-07-29T13:02:22;26.80;91.30
21551;DHT22;10936;49.836;7.078;2022-07-29T13:04:59;26.80;91.30
21551;DHT22;10936;49.836;7.078;2022-07-29T13:07:30;26.80;91.30
21551;DHT22;10936;49.836;7.078;2022-07-29T13:10:20;26.90;91.30
21551;DHT22;10936;49.836;7.078;2022-07-29T13:13:24;26.90;91.30
21551;DHT22;10936;49.836;7.078;2022-07-29T13:16:05;26.90;91.30
21551;DHT22;10936;49.836;7.078;2022-07-29T13:18:34;26.90;91.40
21551;DHT22;10936;49.836;7.078;2022-07-29T13:21:15;26.90;91.40
21551;DHT22;10936;49.836;7.078;2022-07-29T13:23:41;26.90;91.40
21551;DHT22;10936;49.836;7.078;2022-07-29T13:26:08;26.90;91.40
21551;DHT22;10936;49.836;7.078;2022-07-29T13:28:34;26.90;91.40
21551;DHT22;10936;49.836;7.078;2022-07-29T13:31:00;26.90;91.40
21551;DHT22;10936;49.836;7.078;2022-07-29T13:33:26;26.90;91.30
21551;DHT22;10936;49.836;7.078;2022-07-29T13:35:51;26.90;91.30
21551;DHT22;10936;49.836;7.078;2022-07-29T13:38:17;27.00;91.40
21551;DHT22;10936;49.836;7.078;2022-07-29T13:40:43;27.00;91.40
21551;DHT22;10936;49.836;7.078;2022-07-29T13:43:09;27.00;91.40
21551;DHT22;10936;49.836;7.078;2022-07-29T13:45:35;27.00;91.40
21551;DHT22;10936;49.836;7.078;2022-07-29T13:48:01;27.00;91.30
21551;DHT22;10936;49.836;7.078;2022-07-29T13:50:27;27.00;91.30
21551;DHT22;10936;49.836;7.078;2022-07-29T13:52:52;27.00;91.30
21551;DHT22;10936;49.836;7.078;2022-07-29T13:55:18;27.00;91.30
21551;DHT22;10936;49.836;7.078;2022-07-29T13:57:45;27.00;91.00
21551;DHT22;10936;49.836;7.078;2022-07-29T14:00:11;27.00;91.10
21551;DHT22;10936;49.836;7.078;2022-07-29T14:02:37;27.00;91.10
21551;DHT22;10936;49.836;7.078;2022-07-29T14:05:05;27.00;90.90
21551;DHT22;10936;49.836;7.078;2022-07-29T14:07:31;27.00;90.90
21551;DHT22;10936;49.836;7.078;2022-07-29T14:09:57;27.00;90.40
21551;DHT22;10936;49.836;7.078;2022-07-29T14:12:23;27.00;90.60
21551;DHT22;10936;49.836;7.078;2022-07-29T14:14:48;27.00;90.80
21551;DHT22;10936;49.836;7.078;2022-07-29T14:17:15;27.00;90.80
21551;DHT22;10936;49.836;7.078;2022-07-29T14:19:41;27.00;91.00
21551;DHT22;10936;49.836;7.078;2022-07-29T14:22:07;27.00;91.00
21551;DHT22;10936;49.836;7.078;2022-07-29T14:24:34;27.00;91.00
21551;DHT22;10936;49.836;7.078;2022-07-29T14:27:00;27.00;91.00
21551;DHT22;10936;49.836;7.078;2022-07-29T14:29:25;27.00;91.10
21551;DHT22;10936;49.836;7.078;2022-07-29T14:31:51;27.00;91.10
21551;DHT22;10936;49.836;7.078;2022-07-29T14:34:17;27.00;91.10
21551;DHT22;10936;49.836;7.078;2022-07-29T14:36:42;27.00;91.10
21551;DHT22;10936;49.836;7.078;2022-07-29T14:39:08;27.00;91.10
21551;DHT22;10936;49.836;7.078;2022-07-29T14:41:34;27.00;91.10
21551;DHT22;10936;49.836;7.078;2022-07-29T14:44:00;27.00;91.10
21551;DHT22;10936;49.836;7.078;2022-07-29T14:46:28;27.00;91.20
21551;DHT22;10936;49.836;7.078;2022-07-29T14:48:54;27.10;91.10
21551;DHT22;10936;49.836;7.078;2022-07-29T14:51:20;27.00;91.00
21551;DHT22;10936;49.836;7.078;2022-07-29T14:53:46;27.10;91.10
21551;DHT22;10936;49.836;7.078;2022-07-29T14:56:12;27.10;91.00
21551;DHT22;10936;49.836;7.078;2022-07-29T14:58:37;27.10;91.40
21551;DHT22;10936;49.836;7.078;2022-07-29T15:01:03;27.10;91.00
21551;DHT22;10936;49.836;7.078;2022-07-29T15:03:28;27.10;91.00
21551;DHT22;10936;49.836;7.078;2022-07-29T15:05:54;27.10;91.00
21551;DHT22;10936;49.836;7.078;2022-07-29T15:08:21;27.20;91.10
21551;DHT22;10936;49.836;7.078;2022-07-29T15:10:47;27.10;91.00
21551;DHT22;10936;49.836;7.078;2022-07-29T15:13:13;27.10;91.00
21551;DHT22;10936;49.836;7.078;2022-07-29T15:15:38;27.20;91.00
21551;DHT22;10936;49.836;7.078;2022-07-29T15:18:04;27.10;91.00
21551;DHT22;10936;49.836;7.078;2022-07-29T15:20:30;27.20;91.00
21551;DHT22;10936;49.836;7.078;2022-07-29T15:22:56;27.20;91.00
21551;DHT22;10936;49.836;7.078;2022-07-29T15:25:23;27.20;91.00
21551;DHT22;10936;49.836;7.078;2022-07-29T15:27:48;27.20;91.00
21551;DHT22;10936;49.836;7.078;2022-07-29T15:30:14;27.20;91.00
21551;DHT22;10936;49.836;7.078;2022-07-29T15:32:42;27.20;91.00
21551;DHT22;10936;49.836;7.078;2022-07-29T15:35:08;27.20;91.30
21551;DHT22;10936;49.836;7.078;2022-07-29T15:37:38;27.20;90.90
21551;DHT22;10936;49.836;7.078;2022-07-29T15:40:06;27.20;90.90
21551;DHT22;10936;49.836;7.078;2022-07-29T15:42:31;27.20;90.80
21551;DHT22;10936;49.836;7.078;2022-07-29T15:45:00;27.20;90.80
21551;DHT22;10936;49.836;7.078;2022-07-29T15:47:28;27.30;90.90
21551;DHT22;10936;49.836;7.078;2022-07-29T15:49:54;27.30;90.80
21551;DHT22;10936;49.836;7.078;2022-07-29T15:52:20;27.30;90.90
21551;DHT22;10936;49.836;7.078;2022-07-29T15:54:46;27.30;90.90
21551;DHT22;10936;49.836;7.078;2022-07-29T15:57:12;27.30;90.80
21551;DHT22;10936;49.836;7.078;2022-07-29T15:59:37;27.30;90.80
21551;DHT22;10936;49.836;7.078;2022-07-29T16:02:03;27.30;90.80
21551;DHT22;10936;49.836;7.078;2022-07-29T16:04:30;27.30;90.80
21551;DHT22;10936;49.836;7.078;2022-07-29T16:06:56;27.30;90.80
21551;DHT22;10936;49.836;7.078;2022-07-29T16:09:22;27.30;90.80
21551;DHT22;10936;49.836;7.078;2022-07-29T16:11:48;27.30;90.80
21551;DHT22;10936;49.836;7.078;2022-07-29T16:14:17;27.30;90.80
21551;DHT22;10936;49.836;7.078;2022-07-29T16:16:43;27.30;90.80
21551;DHT22;10936;49.836;7.078;2022-07-29T16:19:09;27.30;90.80
21551;DHT22;10936;49.836;7.078;2022-07-29T16:21:35;27.30;90.80
21551;DHT22;10936;49.836;7.078;2022-07-29T16:24:02;27.30;91.20
21551;DHT22;10936;49.836;7.078;2022-07-29T16:26:28;27.30;90.90
21551;DHT22;10936;49.836;7.078;2022-07-29T16:28:54;27.30;90.90
21551;DHT22;10936;49.836;7.078;2022-07-29T16:31:19;27.30;90.80
21551;DHT22;10936;49.836;7.078;2022-07-29T16:33:48;27.30;91.20
21551;DHT22;10936;49.836;7.078;2022-07-29T16:36:14;27.30;90.90
21551;DHT22;10936;49.836;7.078;2022-07-29T16:38:40;27.30;90.90
21551;DHT22;10936;49.836;7.078;2022-07-29T16:41:06;27.30;90.90
21551;DHT22;10936;49.836;7.078;2022-07-29T16:43:32;27.30;90.90
21551;DHT22;10936;49.836;7.078;2022-07-29T16:45:58;27.30;90.90
21551;DHT22;10936;49.836;7.078;2022-07-29T16:48:23;27.30;90.90
21551;DHT22;10936;49.836;7.078;2022-07-29T16:50:49;27.30;91.00
21551;DHT22;10936;49.836;7.078;2022-07-29T16:53:15;27.30;91.00
21551;DHT22;10936;49.836;7.078;2022-07-29T16:55:41;27.30;91.00
21551;DHT22;10936;49.836;7.078;2022-07-29T16:58:06;27.30;91.00
21551;DHT22;10936;49.836;7.078;2022-07-29T17:00:32;27.30;91.00
21551;DHT22;10936;49.836;7.078;2022-07-29T17:02:58;27.30;91.00
21551;DHT22;10936;49.836;7.078;2022-07-29T17:05:25;27.30;91.10
21551;DHT22;10936;49.836;7.078;2022-07-29T17:07:51;27.30;91.10
21551;DHT22;10936;49.836;7.078;2022-07-29T17:10:16;27.30;91.10
21551;DHT22;10936;49.836;7.078;2022-07-29T17:12:43;27.30;91.10
21551;DHT22;10936;49.836;7.078;2022-07-29T17:15:10;27.30;91.10
21551;DHT22;10936;49.836;7.078;2022-07-29T17:17:37;27.30;91.10
21551;DHT22;10936;49.836;7.078;2022-07-29T17:20:06;27.30;91.10
21551;DHT22;10936;49.836;7.078;2022-07-29T17:22:32;27.30;91.10
21551;DHT22;10936;49.836;7.078;2022-07-29T17:24:58;27.30;91.20
21551;DHT22;10936;49.836;7.078;2022-07-29T17:27:23;27.30;91.20
21551;DHT22;10936;49.836;7.078;2022-07-29T17:29:49;27.30;91.20
21551;DHT22;10936;49.836;7.078;2022-07-29T17:32:15;27.30;91.20
21551;DHT22;10936;49.836;7.078;2022-07-29T17:34:41;27.30;91.20
21551;DHT22;10936;49.836;7.078;2022-07-29T17:37:09;27.30;91.20
21551;DHT22;10936;49.836;7.078;2022-07-29T17:39:39;27.20;91.20
21551;DHT22;10936;49.836;7.078;2022-07-29T17:42:10;27.30;91.20
21551;DHT22;10936;49.836;7.078;2022-07-29T17:44:36;27.20;91.20
21551;DHT22;10936;49.836;7.078;2022-07-29T17:47:02;27.30;91.30
21551;DHT22;10936;49.836;7.078;2022-07-29T17:49:28;27.30;91.30
21551;DHT22;10936;49.836;7.078;2022-07-29T17:51:53;27.30;91.30
21551;DHT22;10936;49.836;7.078;2022-07-29T17:54:19;27.20;91.30
21551;DHT22;10936;49.836;7.078;2022-07-29T17:56:45;27.20;91.30
21551;DHT22;10936;49.836;7.078;2022-07-29T17:59:12;27.20;91.30
21551;DHT22;10936;49.836;7.078;2022-07-29T18:01:39;27.20;91.30
21551;DHT22;10936;49.836;7.078;2022-07-29T18:04:09;27.20;91.40
21551;DHT22;10936;49.836;7.078;2022-07-29T18:06:36;27.20;91.40
21551;DHT22;10936;49.836;7.078;2022-07-29T18:09:02;27.20;91.40
21551;DHT22;10936;49.836;7.078;2022-07-29T18:11:28;27.20;91.40
21551;DHT22;10936;49.836;7.078;2022-07-29T18:13:56;27.20;91.40
21551;DHT22;10936;49.836;7.078;2022-07-29T18:16:21;27.20;91.40
21551;DHT22;10936;49.836;7.078;2022-07-29T18:18:47;27.20;91.40
21551;DHT22;10936;49.836;7.078;2022-07-29T18:21:13;27.20;91.40
21551;DHT22;10936;49.836;7.078;2022-07-29T18:23:38;27.20;91.40
21551;DHT22;10936;49.836;7.078;2022-07-29T18:26:04;27.20;91.40
21551;DHT22;10936;49.836;7.078;2022-07-29T18:28:30;27.20;91.40
21551;DHT22;10936;49.836;7.078;2022-07-29T18:30:57;27.20;91.50
21551;DHT22;10936;49.836;7.078;2022-07-29T18:33:23;27.20;91.50
21551;DHT22;10936;49.836;7.078;2022-07-29T18:35:51;27.20;91.50
21551;DHT22;10936;49.836;7.078;2022-07-29T18:38:17;27.20;91.50
21551;DHT22;10936;49.836;7.078;2022-07-29T18:40:43;27.20;91.50
21551;DHT22;10936;49.836;7.078;2022-07-29T18:43:10;27.20;91.50
21551;DHT22;10936;49.836;7.078;2022-07-29T18:45:35;27.20;91.50
21551;DHT22;10936;49.836;7.078;2022-07-29T18:48:02;27.20;91.50
21551;DHT22;10936;49.836;7.078;2022-07-29T18:50:28;27.20;91.50
21551;DHT22;10936;49.836;7.078;2022-07-29T18:52:54;27.20;91.60
21551;DHT22;10936;49.836;7.078;2022-07-29T18:55:20;27.20;91.60
21551;DHT22;10936;49.836;7.078;2022-07-29T18:57:46;27.10;91.60
21551;DHT22;10936;49.836;7.078;2022-07-29T19:00:12;27.10;91.60
21551;DHT22;10936;49.836;7.078;2022-07-29T19:02:38;27.10;91.60
21551;DHT22;10936;49.836;7.078;2022-07-29T19:05:05;27.10;91.60
21551;DHT22;10936;49.836;7.078;2022-07-29T19:07:31;27.20;91.60
21551;DHT22;10936;49.836;7.078;2022-07-29T19:09:57;27.10;91.60
21551;DHT22;10936;49.836;7.078;2022-07-29T19:12:22;27.10;91.60
21551;DHT22;10936;49.836;7.078;2022-07-29T19:14:48;27.10;91.90
21551;DHT22;10936;49.836;7.078;2022-07-29T19:17:14;27.10;91.60
21551;DHT22;10936;49.836;7.078;2022-07-29T19:19:39;27.10;91.60
21551;DHT22;10936;49.836;7.078;2022-07-29T19:22:05;27.10;91.60
21551;DHT22;10936;49.836;7.078;2022-07-29T19:24:31;27.10;91.60
21551;DHT22;10936;49.836;7.078;2022-07-29T19:26:56;27.10;91.60
21551;DHT22;10936;49.836;7.078;2022-07-29T19:29:22;27.10;91.60
21551;DHT22;10936;49.836;7.078;2022-07-29T19:31:50;27.10;91.60
21551;DHT22;10936;49.836;7.078;2022-07-29T19:34:15;27.10;91.60
21551;DHT22;10936;49.836;7.078;2022-07-29T19:36:41;27.10;91.60
21551;DHT22;10936;49.836;7.078;2022-07-29T19:39:08;27.10;91.70
21551;DHT22;10936;49.836;7.078;2022-07-29T19:41:33;27.10;91.60
21551;DHT22;10936;49.836;7.078;2022-07-29T19:43:59;27.10;91.70
21551;DHT22;10936;49.836;7.078;2022-07-29T19:46:25;27.10;91.70
21551;DHT22;10936;49.836;7.078;2022-07-29T19:48:54;27.10;91.70
21551;DHT22;10936;49.836;7.078;2022-07-29T19:51:21;27.10;91.70
21551;DHT22;10936;49.836;7.078;2022-07-29T19:53:47;27.10;91.70
21551;DHT22;10936;49.836;7.078;2022-07-29T19:56:13;27.10;91.70
21551;DHT22;10936;49.836;7.078;2022-07-29T19:58:38;27.10;91.70
21551;DHT22;10936;49.836;7.078;2022-07-29T20:01:05;27.00;91.70
21551;DHT22;10936;49.836;7.078;2022-07-29T20:03:31;27.10;91.70
21551;DHT22;10936;49.836;7.078;2022-07-29T20:05:57;27.10;91.70
21551;DHT22;10936;49.836;7.078;2022-07-29T20:08:23;27.10;91.70
21551;DHT22;10936;49.836;7.078;2022-07-29T20:10:48;27.00;91.70
21551;DHT22;10936;49.836;7.078;2022-07-29T20:13:14;27.00;91.70
21551;DHT22;10936;49.836;7.078;2022-07-29T20:15:40;27.10;91.70
21551;DHT22;10936;49.836;7.078;2022-07-29T20:18:05;27.10;92.10
21551;DHT22;10936;49.836;7.078;2022-07-29T20:20:31;27.00;91.70
21551;DHT22;10936;49.836;7.078;2022-07-29T20:22:57;27.10;91.70
21551;DHT22;10936;49.836;7.078;2022-07-29T20:25:24;27.00;91.70
21551;DHT22;10936;49.836;7.078;2022-07-29T20:27:50;27.00;91.70
21551;DHT22;10936;49.836;7.078;2022-07-29T20:30:20;27.00;91.70
21551;DHT22;10936;49.836;7.078;2022-07-29T20:32:46;27.00;91.70
21551;DHT22;10936;49.836;7.078;2022-07-29T20:35:11;27.00;91.70
21551;DHT22;10936;49.836;7.078;2022-07-29T20:37:38;27.00;91.60
21551;DHT22;10936;49.836;7.078;2022-07-29T20:40:05;27.00;91.70
21551;DHT22;10936;49.836;7.078;2022-07-29T20:42:31;27.00;91.70
21551;DHT22;10936;49.836;7.078;2022-07-29T20:44:57;27.00;91.70
21551;DHT22;10936;49.836;7.078;2022-07-29T20:47:23;27.00;91.90
21551;DHT22;10936;49.836;7.078;2022-07-29T20:49:49;27.00;91.90
21551;DHT22;10936;49.836;7.078;2022-07-29T20:52:15;27.00;92.00
21551;DHT22;10936;49.836;7.078;2022-07-29T20:54:43;27.00;92.00
21551;DHT22;10936;49.836;7.078;2022-07-29T20:57:09;27.00;91.90
21551;DHT22;10936;49.836;7.078;2022-07-29T20:59:35;27.00;91.90
21551;DHT22;10936;49.836;7.078;2022-07-29T21:02:01;27.00;91.70